sensor_id;sensor_type;location;lat;lon;timestamp;P1;durP1;ratioP1;P2;durP2;ratioP2
54883;SDS011;40776;52.880;6.016;2023-04-03T00:01:41;1.63;;;0.80;;
54883;SDS011;40776;52.880;6.016;2023-04-03T00:04:08;3.88;;;1.00;;
54883;SDS011;40776;52.880;6.016;2023-04-03T00:06:34;3.50;;;0.70;;
54883;SDS011;40776;52.880;6.016;2023-04-03T00:09:00;3.85;;;0.88;;
54883;SDS011;40776;52.880;6.016;2023-04-03T00:11:26;2.47;;;0.70;;
54883;SDS011;40776;52.880;6.016;2023-04-03T00:13:52;2.85;;;0.95;;
54883;SDS011;40776;52.880;6.016;2023-04-03T00:16:18;2.53;;;0.75;;
54883;SDS011;40776;52.880;6.016;2023-04-03T00:18:44;2.00;;;0.70;;
54883;SDS011;40776;52.880;6.016;2023-04-03T00:21:12;1.88;;;0.40;;
54883;SDS011;40776;52.880;6.016;2023-04-03T00:23:38;3.10;;;0.90;;
54883;SDS011;40776;52.880;6.016;2023-04-03T00:26:04;1.10;;;0.65;;
54883;SDS011;40776;52.880;6.016;2023-04-03T00:28:30;2.22;;;1.00;;
54883;SDS011;40776;52.880;6.016;2023-04-03T00:30:56;3.92;;;0.90;;
54883;SDS011;40776;52.880;6.016;2023-04-03T00:33:22;5.35;;;1.00;;
54883;SDS011;40776;52.880;6.016;2023-04-03T00:35:49;2.35;;;0.90;;
54883;SDS011;40776;52.880;6.016;2023-04-03T00:38:15;2.88;;;0.80;;
54883;SDS011;40776;52.880;6.016;2023-04-03T00:40:42;3.92;;;0.65;;
54883;SDS011;40776;52.880;6.016;2023-04-03T00:43:10;1.88;;;0.60;;
54883;SDS011;40776;52.880;6.016;2023-04-03T00:45:39;2.13;;;0.68;;
54883;SDS011;40776;52.880;6.016;2023-04-03T00:48:06;2.33;;;0.70;;
54883;SDS011;40776;52.880;6.016;2023-04-03T00:50:34;2.60;;;0.77;;
54883;SDS011;40776;52.880;6.016;2023-04-03T00:53:01;3.13;;;0.88;;
54883;SDS011;40776;52.880;6.016;2023-04-03T00:55:27;5.40;;;1.02;;
54883;SDS011;40776;52.880;6.016;2023-04-03T00:57:53;1.73;;;0.70;;
54883;SDS011;40776;52.880;6.016;2023-04-03T01:00:21;1.73;;;0.68;;
54883;SDS011;40776;52.880;6.016;2023-04-03T01:02:48;1.90;;;0.50;;
54883;SDS011;40776;52.880;6.016;2023-04-03T01:05:14;1.85;;;0.60;;
54883;SDS011;40776;52.880;6.016;2023-04-03T01:07:41;1.10;;;0.52;;
54883;SDS011;40776;52.880;6.016;2023-04-03T01:10:09;4.38;;;1.45;;
54883;SDS011;40776;52.880;6.016;2023-04-03T01:12:37;1.83;;;0.70;;
54883;SDS011;40776;52.880;6.016;2023-04-03T01:15:05;1.08;;;0.65;;
54883;SDS011;40776;52.880;6.016;2023-04-03T01:17:39;2.55;;;0.80;;
54883;SDS011;40776;52.880;6.016;2023-04-03T01:22:58;3.40;;;0.90;;
54883;SDS011;40776;52.880;6.016;2023-04-03T01:25:30;5.00;;;0.80;;
54883;SDS011;40776;52.880;6.016;2023-04-03T01:27:56;4.32;;;1.15;;
54883;SDS011;40776;52.880;6.016;2023-04-03T01:30:24;0.98;;;0.50;;
54883;SDS011;40776;52.880;6.016;2023-04-03T01:32:52;2.72;;;0.60;;
54883;SDS011;40776;52.880;6.016;2023-04-03T01:35:18;2.20;;;0.60;;
54883;SDS011;40776;52.880;6.016;2023-04-03T01:37:44;3.72;;;0.70;;
54883;SDS011;40776;52.880;6.016;2023-04-03T01:40:10;2.22;;;0.93;;
54883;SDS011;40776;52.880;6.016;2023-04-03T01:42:36;2.83;;;0.75;;
54883;SDS011;40776;52.880;6.016;2023-04-03T01:45:02;5.95;;;1.30;;
54883;SDS011;40776;52.880;6.016;2023-04-03T01:47:28;2.97;;;0.90;;
54883;SDS011;40776;52.880;6.016;2023-04-03T01:49:54;4.13;;;0.80;;
54883;SDS011;40776;52.880;6.016;2023-04-03T01:52:20;2.88;;;1.00;;
54883;SDS011;40776;52.880;6.016;2023-04-03T01:54:46;2.05;;;1.00;;
54883;SDS011;40776;52.880;6.016;2023-04-03T01:57:12;5.28;;;1.00;;
54883;SDS011;40776;52.880;6.016;2023-04-03T01:59:40;4.75;;;0.80;;
54883;SDS011;40776;52.880;6.016;2023-04-03T02:02:06;3.25;;;0.60;;
54883;SDS011;40776;52.880;6.016;2023-04-03T02:04:32;7.10;;;1.10;;
54883;SDS011;40776;52.880;6.016;2023-04-03T02:06:58;3.80;;;0.95;;
54883;SDS011;40776;52.880;6.016;2023-04-03T02:09:24;3.63;;;1.10;;
54883;SDS011;40776;52.880;6.016;2023-04-03T02:11:52;2.47;;;0.70;;
54883;SDS011;40776;52.880;6.016;2023-04-03T02:14:18;4.85;;;1.30;;
54883;SDS011;40776;52.880;6.016;2023-04-03T02:16:45;3.10;;;0.98;;
54883;SDS011;40776;52.880;6.016;2023-04-03T02:19:11;5.25;;;1.10;;
54883;SDS011;40776;52.880;6.016;2023-04-03T02:21:37;6.90;;;1.10;;
54883;SDS011;40776;52.880;6.016;2023-04-03T02:24:03;2.53;;;0.80;;
54883;SDS011;40776;52.880;6.016;2023-04-03T02:26:30;5.03;;;0.82;;
54883;SDS011;40776;52.880;6.016;2023-04-03T02:28:56;2.33;;;0.82;;
54883;SDS011;40776;52.880;6.016;2023-04-03T02:31:22;3.92;;;1.10;;
54883;SDS011;40776;52.880;6.016;2023-04-03T02:33:49;2.88;;;1.02;;
54883;SDS011;40776;52.880;6.016;2023-04-03T02:36:15;3.20;;;1.05;;
54883;SDS011;40776;52.880;6.016;2023-04-03T02:38:41;2.45;;;1.20;;
54883;SDS011;40776;52.880;6.016;2023-04-03T02:41:08;4.50;;;1.40;;
54883;SDS011;40776;52.880;6.016;2023-04-03T02:43:35;4.35;;;1.15;;
54883;SDS011;40776;52.880;6.016;2023-04-03T02:46:01;2.35;;;1.00;;
54883;SDS011;40776;52.880;6.016;2023-04-03T02:48:27;2.38;;;0.85;;
54883;SDS011;40776;52.880;6.016;2023-04-03T02:50:53;5.35;;;1.20;;
54883;SDS011;40776;52.880;6.016;2023-04-03T02:53:19;5.05;;;0.80;;
54883;SDS011;40776;52.880;6.016;2023-04-03T02:55:46;4.47;;;1.10;;
54883;SDS011;40776;52.880;6.016;2023-04-03T02:58:12;2.38;;;0.80;;
54883;SDS011;40776;52.880;6.016;2023-04-03T03:00:38;3.10;;;0.80;;
54883;SDS011;40776;52.880;6.016;2023-04-03T03:03:04;5.40;;;1.50;;
54883;SDS011;40776;52.880;6.016;2023-04-03T03:05:31;4.60;;;0.93;;
54883;SDS011;40776;52.880;6.016;2023-04-03T03:07:57;2.95;;;1.02;;
54883;SDS011;40776;52.880;6.016;2023-04-03T03:10:24;2.85;;;0.98;;
54883;SDS011;40776;52.880;6.016;2023-04-03T03:12:50;5.65;;;1.02;;
54883;SDS011;40776;52.880;6.016;2023-04-03T03:15:16;4.05;;;1.20;;
54883;SDS011;40776;52.880;6.016;2023-04-03T03:17:44;1.88;;;1.00;;
54883;SDS011;40776;52.880;6.016;2023-04-03T03:20:10;2.95;;;0.93;;
54883;SDS011;40776;52.880;6.016;2023-04-03T03:22:37;5.10;;;1.63;;
54883;SDS011;40776;52.880;6.016;2023-04-03T03:25:03;3.40;;;1.40;;
54883;SDS011;40776;52.880;6.016;2023-04-03T03:30:12;3.97;;;1.10;;
54883;SDS011;40776;52.880;6.016;2023-04-03T03:32:39;4.82;;;1.10;;
54883;SDS011;40776;52.880;6.016;2023-04-03T03:35:05;3.38;;;1.15;;
54883;SDS011;40776;52.880;6.016;2023-04-03T03:37:31;3.35;;;1.05;;
54883;SDS011;40776;52.880;6.016;2023-04-03T03:39:57;3.35;;;1.27;;
54883;SDS011;40776;52.880;6.016;2023-04-03T03:42:23;5.53;;;1.30;;
54883;SDS011;40776;52.880;6.016;2023-04-03T03:44:49;8.38;;;1.80;;
54883;SDS011;40776;52.880;6.016;2023-04-03T03:47:16;3.53;;;1.08;;
54883;SDS011;40776;52.880;6.016;2023-04-03T03:49:42;3.85;;;1.48;;
54883;SDS011;40776;52.880;6.016;2023-04-03T03:52:08;3.78;;;1.13;;
54883;SDS011;40776;52.880;6.016;2023-04-03T03:54:37;7.20;;;1.60;;
54883;SDS011;40776;52.880;6.016;2023-04-03T03:57:04;10.20;;;1.88;;
54883;SDS011;40776;52.880;6.016;2023-04-03T03:59:30;3.10;;;1.30;;
54883;SDS011;40776;52.880;6.016;2023-04-03T04:01:56;2.33;;;1.00;;
54883;SDS011;40776;52.880;6.016;2023-04-03T04:04:22;2.95;;;1.25;;
54883;SDS011;40776;52.880;6.016;2023-04-03T04:06:48;4.35;;;1.10;;
54883;SDS011;40776;52.880;6.016;2023-04-03T04:09:15;4.32;;;1.42;;
54883;SDS011;40776;52.880;6.016;2023-04-03T04:11:41;7.97;;;1.33;;
54883;SDS011;40776;52.880;6.016;2023-04-03T04:14:07;8.25;;;1.30;;
54883;SDS011;40776;52.880;6.016;2023-04-03T04:16:35;5.47;;;1.10;;
54883;SDS011;40776;52.880;6.016;2023-04-03T04:19:01;3.72;;;1.42;;
54883;SDS011;40776;52.880;6.016;2023-04-03T04:21:27;5.93;;;1.67;;
54883;SDS011;40776;52.880;6.016;2023-04-03T04:23:53;4.88;;;1.45;;
54883;SDS011;40776;52.880;6.016;2023-04-03T04:26:19;5.60;;;1.75;;
54883;SDS011;40776;52.880;6.016;2023-04-03T04:28:45;3.88;;;1.42;;
54883;SDS011;40776;52.880;6.016;2023-04-03T04:31:11;3.05;;;0.93;;
54883;SDS011;40776;52.880;6.016;2023-04-03T04:33:37;5.22;;;1.35;;
54883;SDS011;40776;52.880;6.016;2023-04-03T04:36:03;3.53;;;1.27;;
54883;SDS011;40776;52.880;6.016;2023-04-03T04:38:30;3.72;;;1.55;;
54883;SDS011;40776;52.880;6.016;2023-04-03T04:40:56;8.07;;;1.85;;
54883;SDS011;40776;52.880;6.016;2023-04-03T04:43:22;8.80;;;1.73;;
54883;SDS011;40776;52.880;6.016;2023-04-03T04:45:48;3.85;;;1.80;;
54883;SDS011;40776;52.880;6.016;2023-04-03T04:48:14;6.22;;;1.42;;
54883;SDS011;40776;52.880;6.016;2023-04-03T04:50:40;3.55;;;1.55;;
54883;SDS011;40776;52.880;6.016;2023-04-03T04:53:05;4.22;;;1.60;;
54883;SDS011;40776;52.880;6.016;2023-04-03T04:55:31;5.55;;;1.67;;
54883;SDS011;40776;52.880;6.016;2023-04-03T04:57:58;3.55;;;1.50;;
54883;SDS011;40776;52.880;6.016;2023-04-03T05:00:24;5.03;;;1.38;;
54883;SDS011;40776;52.880;6.016;2023-04-03T05:02:50;7.47;;;1.92;;
54883;SDS011;40776;52.880;6.016;2023-04-03T05:05:16;9.63;;;1.73;;
54883;SDS011;40776;52.880;6.016;2023-04-03T05:07:42;4.78;;;1.50;;
54883;SDS011;40776;52.880;6.016;2023-04-03T05:10:08;4.45;;;1.58;;
54883;SDS011;40776;52.880;6.016;2023-04-03T05:12:34;6.20;;;1.67;;
54883;SDS011;40776;52.880;6.016;2023-04-03T05:15:00;7.40;;;1.85;;
54883;SDS011;40776;52.880;6.016;2023-04-03T05:17:26;6.60;;;1.73;;
54883;SDS011;40776;52.880;6.016;2023-04-03T05:19:52;6.97;;;1.95;;
54883;SDS011;40776;52.880;6.016;2023-04-03T05:22:18;5.50;;;2.83;;
54883;SDS011;40776;52.880;6.016;2023-04-03T05:24:45;6.45;;;1.50;;
54883;SDS011;40776;52.880;6.016;2023-04-03T05:27:11;4.90;;;1.92;;
54883;SDS011;40776;52.880;6.016;2023-04-03T05:29:37;4.57;;;1.98;;
54883;SDS011;40776;52.880;6.016;2023-04-03T05:32:03;6.38;;;1.58;;
54883;SDS011;40776;52.880;6.016;2023-04-03T05:34:29;4.85;;;1.77;;
54883;SDS011;40776;52.880;6.016;2023-04-03T05:36:55;6.50;;;2.10;;
54883;SDS011;40776;52.880;6.016;2023-04-03T05:39:21;7.15;;;1.58;;
54883;SDS011;40776;52.880;6.016;2023-04-03T05:41:49;3.72;;;1.60;;
54883;SDS011;40776;52.880;6.016;2023-04-03T05:44:15;8.55;;;2.00;;
54883;SDS011;40776;52.880;6.016;2023-04-03T05:46:41;6.05;;;2.20;;
54883;SDS011;40776;52.880;6.016;2023-04-03T05:49:07;4.43;;;1.65;;
54883;SDS011;40776;52.880;6.016;2023-04-03T05:51:34;7.95;;;1.80;;
54883;SDS011;40776;52.880;6.016;2023-04-03T05:54:03;7.70;;;1.77;;
54883;SDS011;40776;52.880;6.016;2023-04-03T05:56:31;6.07;;;1.75;;
54883;SDS011;40776;52.880;6.016;2023-04-03T05:58:58;5.80;;;1.55;;
54883;SDS011;40776;52.880;6.016;2023-04-03T06:01:24;3.97;;;1.55;;
54883;SDS011;40776;52.880;6.016;2023-04-03T06:03:50;4.45;;;1.60;;
54883;SDS011;40776;52.880;6.016;2023-04-03T06:06:16;7.75;;;1.70;;
54883;SDS011;40776;52.880;6.016;2023-04-03T06:08:42;7.40;;;1.60;;
54883;SDS011;40776;52.880;6.016;2023-04-03T06:11:08;7.05;;;2.95;;
54883;SDS011;40776;52.880;6.016;2023-04-03T06:13:35;5.70;;;1.98;;
54883;SDS011;40776;52.880;6.016;2023-04-03T06:16:01;4.60;;;1.50;;
54883;SDS011;40776;52.880;6.016;2023-04-03T06:18:27;10.40;;;2.72;;
54883;SDS011;40776;52.880;6.016;2023-04-03T06:20:53;8.43;;;2.35;;
54883;SDS011;40776;52.880;6.016;2023-04-03T06:23:19;8.48;;;1.98;;
54883;SDS011;40776;52.880;6.016;2023-04-03T06:25:45;7.25;;;2.35;;
54883;SDS011;40776;52.880;6.016;2023-04-03T06:28:12;6.15;;;1.75;;
54883;SDS011;40776;52.880;6.016;2023-04-03T06:30:38;8.23;;;1.73;;
54883;SDS011;40776;52.880;6.016;2023-04-03T06:33:04;8.20;;;1.75;;
54883;SDS011;40776;52.880;6.016;2023-04-03T06:35:30;5.97;;;1.40;;
54883;SDS011;40776;52.880;6.016;2023-04-03T06:37:56;4.38;;;1.60;;
54883;SDS011;40776;52.880;6.016;2023-04-03T06:40:23;7.97;;;1.50;;
54883;SDS011;40776;52.880;6.016;2023-04-03T06:42:51;5.00;;;1.60;;
54883;SDS011;40776;52.880;6.016;2023-04-03T06:45:17;7.70;;;1.83;;
54883;SDS011;40776;52.880;6.016;2023-04-03T06:47:43;8.75;;;1.80;;
54883;SDS011;40776;52.880;6.016;2023-04-03T06:50:10;4.85;;;1.20;;
54883;SDS011;40776;52.880;6.016;2023-04-03T06:52:39;3.83;;;1.70;;
54883;SDS011;40776;52.880;6.016;2023-04-03T06:55:05;9.88;;;1.73;;
54883;SDS011;40776;52.880;6.016;2023-04-03T06:57:31;6.95;;;2.03;;
54883;SDS011;40776;52.880;6.016;2023-04-03T06:59:57;5.05;;;1.75;;
54883;SDS011;40776;52.880;6.016;2023-04-03T07:02:23;6.03;;;1.25;;
54883;SDS011;40776;52.880;6.016;2023-04-03T07:04:49;6.43;;;2.28;;
54883;SDS011;40776;52.880;6.016;2023-04-03T07:07:15;6.88;;;2.03;;
54883;SDS011;40776;52.880;6.016;2023-04-03T07:09:42;5.68;;;1.67;;
54883;SDS011;40776;52.880;6.016;2023-04-03T07:12:08;6.35;;;1.52;;
54883;SDS011;40776;52.880;6.016;2023-04-03T07:14:34;3.38;;;0.95;;
54883;SDS011;40776;52.880;6.016;2023-04-03T07:17:01;5.55;;;1.50;;
54883;SDS011;40776;52.880;6.016;2023-04-03T07:19:27;3.63;;;1.33;;
54883;SDS011;40776;52.880;6.016;2023-04-03T07:21:53;9.75;;;1.70;;
54883;SDS011;40776;52.880;6.016;2023-04-03T07:24:20;3.58;;;1.08;;
54883;SDS011;40776;52.880;6.016;2023-04-03T07:26:49;5.95;;;1.55;;
54883;SDS011;40776;52.880;6.016;2023-04-03T07:29:15;5.45;;;1.30;;
54883;SDS011;40776;52.880;6.016;2023-04-03T07:31:42;3.30;;;1.17;;
54883;SDS011;40776;52.880;6.016;2023-04-03T07:34:09;4.45;;;1.55;;
54883;SDS011;40776;52.880;6.016;2023-04-03T07:36:36;6.05;;;1.40;;
54883;SDS011;40776;52.880;6.016;2023-04-03T07:39:02;3.42;;;1.10;;
54883;SDS011;40776;52.880;6.016;2023-04-03T07:41:28;4.13;;;1.33;;
54883;SDS011;40776;52.880;6.016;2023-04-03T07:43:55;2.20;;;0.90;;
54883;SDS011;40776;52.880;6.016;2023-04-03T07:46:21;2.33;;;0.90;;
54883;SDS011;40776;52.880;6.016;2023-04-03T07:48:47;6.70;;;1.10;;
54883;SDS011;40776;52.880;6.016;2023-04-03T07:51:13;4.60;;;0.95;;
54883;SDS011;40776;52.880;6.016;2023-04-03T07:53:40;2.92;;;1.10;;
54883;SDS011;40776;52.880;6.016;2023-04-03T07:56:06;7.38;;;1.67;;
54883;SDS011;40776;52.880;6.016;2023-04-03T07:58:32;2.40;;;1.10;;
54883;SDS011;40776;52.880;6.016;2023-04-03T08:00:59;4.10;;;1.10;;
54883;SDS011;40776;52.880;6.016;2023-04-03T08:03:25;2.47;;;0.98;;
54883;SDS011;40776;52.880;6.016;2023-04-03T08:05:51;4.78;;;0.95;;
54883;SDS011;40776;52.880;6.016;2023-04-03T08:08:21;2.30;;;0.90;;
54883;SDS011;40776;52.880;6.016;2023-04-03T08:10:49;3.17;;;1.52;;
54883;SDS011;40776;52.880;6.016;2023-04-03T08:13:15;2.15;;;0.90;;
54883;SDS011;40776;52.880;6.016;2023-04-03T08:15:41;6.07;;;1.73;;
54883;SDS011;40776;52.880;6.016;2023-04-03T08:18:08;2.63;;;0.90;;
54883;SDS011;40776;52.880;6.016;2023-04-03T08:20:34;2.65;;;0.68;;
54883;SDS011;40776;52.880;6.016;2023-04-03T08:23:01;2.60;;;0.75;;
54883;SDS011;40776;52.880;6.016;2023-04-03T08:25:27;4.05;;;1.20;;
54883;SDS011;40776;52.880;6.016;2023-04-03T08:27:54;3.72;;;0.80;;
54883;SDS011;40776;52.880;6.016;2023-04-03T08:30:20;3.95;;;0.70;;
54883;SDS011;40776;52.880;6.016;2023-04-03T08:32:46;4.03;;;0.88;;
54883;SDS011;40776;52.880;6.016;2023-04-03T08:35:13;4.88;;;0.90;;
54883;SDS011;40776;52.880;6.016;2023-04-03T08:37:39;1.67;;;0.70;;
54883;SDS011;40776;52.880;6.016;2023-04-03T08:40:06;5.00;;;0.85;;
54883;SDS011;40776;52.880;6.016;2023-04-03T08:45:36;1.70;;;0.70;;
54883;SDS011;40776;52.880;6.016;2023-04-03T08:48:04;2.45;;;1.02;;
54883;SDS011;40776;52.880;6.016;2023-04-03T08:51:09;3.47;;;0.90;;
54883;SDS011;40776;52.880;6.016;2023-04-03T08:53:25;1.85;;;0.68;;
54883;SDS011;40776;52.880;6.016;2023-04-03T08:55:53;3.03;;;0.90;;
54883;SDS011;40776;52.880;6.016;2023-04-03T08:58:30;3.47;;;0.63;;
54883;SDS011;40776;52.880;6.016;2023-04-03T09:04:08;3.00;;;0.75;;
54883;SDS011;40776;52.880;6.016;2023-04-03T09:06:35;3.85;;;0.63;;
54883;SDS011;40776;52.880;6.016;2023-04-03T09:09:06;1.60;;;0.63;;
54883;SDS011;40776;52.880;6.016;2023-04-03T09:21:38;3.65;;;0.70;;
54883;SDS011;40776;52.880;6.016;2023-04-03T09:24:07;3.05;;;0.70;;
54883;SDS011;40776;52.880;6.016;2023-04-03T09:26:42;3.72;;;0.70;;
54883;SDS011;40776;52.880;6.016;2023-04-03T09:29:10;2.75;;;0.60;;
54883;SDS011;40776;52.880;6.016;2023-04-03T09:31:40;2.43;;;0.60;;
54883;SDS011;40776;52.880;6.016;2023-04-03T09:34:21;4.45;;;0.52;;
54883;SDS011;40776;52.880;6.016;2023-04-03T09:36:52;3.67;;;0.70;;
54883;SDS011;40776;52.880;6.016;2023-04-03T09:39:19;2.53;;;0.47;;
54883;SDS011;40776;52.880;6.016;2023-04-03T09:41:56;2.25;;;0.43;;
54883;SDS011;40776;52.880;6.016;2023-04-03T09:44:24;1.45;;;0.52;;
54883;SDS011;40776;52.880;6.016;2023-04-03T09:46:50;2.15;;;0.40;;
54883;SDS011;40776;52.880;6.016;2023-04-03T09:49:17;2.78;;;0.52;;
54883;SDS011;40776;52.880;6.016;2023-04-03T09:51:43;3.72;;;0.75;;
54883;SDS011;40776;52.880;6.016;2023-04-03T09:57:35;2.28;;;0.70;;
54883;SDS011;40776;52.880;6.016;2023-04-03T09:59:58;2.88;;;0.65;;
54883;SDS011;40776;52.880;6.016;2023-04-03T10:02:32;1.98;;;0.70;;
54883;SDS011;40776;52.880;6.016;2023-04-03T10:04:59;3.17;;;0.85;;
54883;SDS011;40776;52.880;6.016;2023-04-03T10:07:35;3.30;;;0.70;;
54883;SDS011;40776;52.880;6.016;2023-04-03T10:10:23;4.43;;;0.80;;
54883;SDS011;40776;52.880;6.016;2023-04-03T10:13:03;1.50;;;0.47;;
54883;SDS011;40776;52.880;6.016;2023-04-03T10:15:30;1.77;;;0.63;;
54883;SDS011;40776;52.880;6.016;2023-04-03T10:18:02;0.95;;;0.40;;
54883;SDS011;40776;52.880;6.016;2023-04-03T10:20:44;1.90;;;0.60;;
54883;SDS011;40776;52.880;6.016;2023-04-03T10:36:10;2.13;;;0.60;;
54883;SDS011;40776;52.880;6.016;2023-04-03T10:38:43;3.17;;;0.70;;
54883;SDS011;40776;52.880;6.016;2023-04-03T10:41:35;3.47;;;0.60;;
54883;SDS011;40776;52.880;6.016;2023-04-03T10:44:04;2.72;;;1.00;;
54883;SDS011;40776;52.880;6.016;2023-04-03T10:46:36;2.30;;;0.68;;
54883;SDS011;40776;52.880;6.016;2023-04-03T10:54:13;2.35;;;0.60;;
54883;SDS011;40776;52.880;6.016;2023-04-03T11:01:46;4.32;;;0.90;;
54883;SDS011;40776;52.880;6.016;2023-04-03T11:04:13;3.17;;;0.60;;
54883;SDS011;40776;52.880;6.016;2023-04-03T11:06:43;3.42;;;0.88;;
54883;SDS011;40776;52.880;6.016;2023-04-03T11:09:18;2.35;;;0.80;;
54883;SDS011;40776;52.880;6.016;2023-04-03T11:11:45;0.95;;;0.65;;
54883;SDS011;40776;52.880;6.016;2023-04-03T11:16:43;1.63;;;0.68;;
54883;SDS011;40776;52.880;6.016;2023-04-03T11:21:47;23.70;;;2.67;;
54883;SDS011;40776;52.880;6.016;2023-04-03T11:24:25;2.17;;;0.60;;
54883;SDS011;40776;52.880;6.016;2023-04-03T11:26:52;3.15;;;0.60;;
54883;SDS011;40776;52.880;6.016;2023-04-03T11:29:20;1.88;;;0.90;;
54883;SDS011;40776;52.880;6.016;2023-04-03T11:32:07;1.95;;;0.68;;
54883;SDS011;40776;52.880;6.016;2023-04-03T11:34:49;2.13;;;0.63;;
54883;SDS011;40776;52.880;6.016;2023-04-03T11:39:56;2.08;;;0.40;;
54883;SDS011;40776;52.880;6.016;2023-04-03T11:42:36;19.88;;;1.58;;
54883;SDS011;40776;52.880;6.016;2023-04-03T11:47:49;2.83;;;0.57;;
54883;SDS011;40776;52.880;6.016;2023-04-03T11:52:57;1.90;;;0.57;;
54883;SDS011;40776;52.880;6.016;2023-04-03T12:13:35;4.00;;;1.00;;
54883;SDS011;40776;52.880;6.016;2023-04-03T12:16:02;4.18;;;0.68;;
54883;SDS011;40776;52.880;6.016;2023-04-03T12:20:58;2.20;;;0.43;;
54883;SDS011;40776;52.880;6.016;2023-04-03T12:23:24;2.22;;;1.00;;
54883;SDS011;40776;52.880;6.016;2023-04-03T12:25:51;1.27;;;0.60;;
54883;SDS011;40776;52.880;6.016;2023-04-03T12:28:26;1.60;;;0.60;;
54883;SDS011;40776;52.880;6.016;2023-04-03T12:30:53;2.80;;;0.70;;
54883;SDS011;40776;52.880;6.016;2023-04-03T12:36:02;2.17;;;0.68;;
54883;SDS011;40776;52.880;6.016;2023-04-03T12:41:14;4.95;;;0.70;;
54883;SDS011;40776;52.880;6.016;2023-04-03T12:46:21;7.65;;;0.70;;
54883;SDS011;40776;52.880;6.016;2023-04-03T12:48:52;3.38;;;1.38;;
54883;SDS011;40776;52.880;6.016;2023-04-03T12:56:46;3.83;;;0.70;;
54883;SDS011;40776;52.880;6.016;2023-04-03T12:59:18;1.30;;;0.50;;
54883;SDS011;40776;52.880;6.016;2023-04-03T13:01:52;1.05;;;0.57;;
54883;SDS011;40776;52.880;6.016;2023-04-03T13:04:18;1.48;;;0.70;;
54883;SDS011;40776;52.880;6.016;2023-04-03T13:06:44;6.18;;;0.95;;
54883;SDS011;40776;52.880;6.016;2023-04-03T13:09:20;1.67;;;0.65;;
54883;SDS011;40776;52.880;6.016;2023-04-03T13:11:47;2.10;;;0.68;;
54883;SDS011;40776;52.880;6.016;2023-04-03T13:14:17;2.45;;;0.90;;
54883;SDS011;40776;52.880;6.016;2023-04-03T13:16:53;3.65;;;1.17;;
54883;SDS011;40776;52.880;6.016;2023-04-03T13:19:20;2.70;;;1.00;;
54883;SDS011;40776;52.880;6.016;2023-04-03T13:21:48;2.83;;;0.90;;
54883;SDS011;40776;52.880;6.016;2023-04-03T13:24:16;2.78;;;0.88;;
54883;SDS011;40776;52.880;6.016;2023-04-03T13:26:42;3.05;;;0.75;;
54883;SDS011;40776;52.880;6.016;2023-04-03T13:29:19;3.33;;;0.93;;
54883;SDS011;40776;52.880;6.016;2023-04-03T13:31:46;2.65;;;0.90;;
54883;SDS011;40776;52.880;6.016;2023-04-03T13:34:20;2.85;;;0.75;;
54883;SDS011;40776;52.880;6.016;2023-04-03T13:41:47;3.78;;;1.10;;
54883;SDS011;40776;52.880;6.016;2023-04-03T13:46:42;2.65;;;0.90;;
54883;SDS011;40776;52.880;6.016;2023-04-03T13:49:22;5.13;;;0.93;;
54883;SDS011;40776;52.880;6.016;2023-04-03T13:51:49;2.80;;;0.98;;
54883;SDS011;40776;52.880;6.016;2023-04-03T13:56:47;4.40;;;1.10;;
54883;SDS011;40776;52.880;6.016;2023-04-03T14:01:49;2.05;;;0.80;;
54883;SDS011;40776;52.880;6.016;2023-04-03T14:06:42;2.10;;;0.75;;
54883;SDS011;40776;52.880;6.016;2023-04-03T14:09:08;3.13;;;0.90;;
54883;SDS011;40776;52.880;6.016;2023-04-03T14:11:34;1.98;;;0.70;;
54883;SDS011;40776;52.880;6.016;2023-04-03T14:14:02;2.35;;;0.77;;
54883;SDS011;40776;52.880;6.016;2023-04-03T14:16:30;2.20;;;0.80;;
54883;SDS011;40776;52.880;6.016;2023-04-03T14:18:56;2.00;;;1.00;;
54883;SDS011;40776;52.880;6.016;2023-04-03T14:21:23;1.88;;;0.93;;
54883;SDS011;40776;52.880;6.016;2023-04-03T14:23:49;4.32;;;1.25;;
54883;SDS011;40776;52.880;6.016;2023-04-03T14:26:17;3.70;;;0.85;;
54883;SDS011;40776;52.880;6.016;2023-04-03T14:28:46;3.35;;;1.02;;
54883;SDS011;40776;52.880;6.016;2023-04-03T14:31:13;4.68;;;1.10;;
54883;SDS011;40776;52.880;6.016;2023-04-03T14:33:39;5.20;;;1.42;;
54883;SDS011;40776;52.880;6.016;2023-04-03T14:36:22;5.93;;;1.10;;
54883;SDS011;40776;52.880;6.016;2023-04-03T14:38:50;4.53;;;1.00;;
54883;SDS011;40776;52.880;6.016;2023-04-03T14:41:17;3.88;;;1.05;;
54883;SDS011;40776;52.880;6.016;2023-04-03T14:43:44;9.10;;;1.33;;
54883;SDS011;40776;52.880;6.016;2023-04-03T14:46:14;5.60;;;1.20;;
54883;SDS011;40776;52.880;6.016;2023-04-03T14:51:08;5.50;;;1.38;;
54883;SDS011;40776;52.880;6.016;2023-04-03T14:53:35;3.17;;;1.08;;
54883;SDS011;40776;52.880;6.016;2023-04-03T14:56:04;4.30;;;1.15;;
54883;SDS011;40776;52.880;6.016;2023-04-03T14:58:30;7.55;;;1.45;;
54883;SDS011;40776;52.880;6.016;2023-04-03T15:00:57;1.88;;;0.80;;
54883;SDS011;40776;52.880;6.016;2023-04-03T15:03:24;2.28;;;1.00;;
54883;SDS011;40776;52.880;6.016;2023-04-03T15:05:50;5.43;;;1.48;;
54883;SDS011;40776;52.880;6.016;2023-04-03T15:08:17;5.05;;;1.30;;
54883;SDS011;40776;52.880;6.016;2023-04-03T15:10:44;5.55;;;1.52;;
54883;SDS011;40776;52.880;6.016;2023-04-03T15:13:10;5.72;;;1.50;;
54883;SDS011;40776;52.880;6.016;2023-04-03T15:15:37;3.00;;;1.30;;
54883;SDS011;40776;52.880;6.016;2023-04-03T15:18:03;3.78;;;1.25;;
54883;SDS011;40776;52.880;6.016;2023-04-03T15:20:29;3.78;;;0.90;;
54883;SDS011;40776;52.880;6.016;2023-04-03T15:22:58;2.33;;;0.95;;
54883;SDS011;40776;52.880;6.016;2023-04-03T15:25:26;4.72;;;1.20;;
54883;SDS011;40776;52.880;6.016;2023-04-03T15:27:53;4.38;;;1.20;;
54883;SDS011;40776;52.880;6.016;2023-04-03T15:30:20;4.10;;;1.30;;
54883;SDS011;40776;52.880;6.016;2023-04-03T15:32:46;3.58;;;1.00;;
54883;SDS011;40776;52.880;6.016;2023-04-03T15:35:12;2.70;;;1.13;;
54883;SDS011;40776;52.880;6.016;2023-04-03T15:37:39;5.18;;;1.10;;
54883;SDS011;40776;52.880;6.016;2023-04-03T15:40:06;3.17;;;1.00;;
54883;SDS011;40776;52.880;6.016;2023-04-03T15:42:32;3.40;;;1.10;;
54883;SDS011;40776;52.880;6.016;2023-04-03T15:44:58;2.88;;;1.23;;
54883;SDS011;40776;52.880;6.016;2023-04-03T15:47:25;2.13;;;1.02;;
54883;SDS011;40776;52.880;6.016;2023-04-03T15:49:52;3.35;;;1.20;;
54883;SDS011;40776;52.880;6.016;2023-04-03T15:52:19;2.42;;;1.00;;
54883;SDS011;40776;52.880;6.016;2023-04-03T15:54:45;2.28;;;0.98;;
54883;SDS011;40776;52.880;6.016;2023-04-03T15:57:11;2.42;;;1.08;;
54883;SDS011;40776;52.880;6.016;2023-04-03T15:59:37;5.80;;;1.58;;
54883;SDS011;40776;52.880;6.016;2023-04-03T16:02:03;4.10;;;1.33;;
54883;SDS011;40776;52.880;6.016;2023-04-03T16:04:31;3.47;;;1.20;;
54883;SDS011;40776;52.880;6.016;2023-04-03T16:07:00;3.42;;;1.30;;
54883;SDS011;40776;52.880;6.016;2023-04-03T16:09:26;2.22;;;1.08;;
54883;SDS011;40776;52.880;6.016;2023-04-03T16:11:52;3.05;;;1.10;;
54883;SDS011;40776;52.880;6.016;2023-04-03T16:14:18;2.60;;;1.10;;
54883;SDS011;40776;52.880;6.016;2023-04-03T16:16:44;3.10;;;1.25;;
54883;SDS011;40776;52.880;6.016;2023-04-03T16:19:10;3.22;;;1.10;;
54883;SDS011;40776;52.880;6.016;2023-04-03T16:21:37;2.03;;;0.80;;
54883;SDS011;40776;52.880;6.016;2023-04-03T16:24:03;2.38;;;0.88;;
54883;SDS011;40776;52.880;6.016;2023-04-03T16:26:30;4.03;;;1.10;;
54883;SDS011;40776;52.880;6.016;2023-04-03T16:28:56;3.05;;;1.02;;
54883;SDS011;40776;52.880;6.016;2023-04-03T16:31:22;1.77;;;0.98;;
54883;SDS011;40776;52.880;6.016;2023-04-03T16:33:49;2.25;;;1.15;;
54883;SDS011;40776;52.880;6.016;2023-04-03T16:36:15;2.40;;;0.82;;
54883;SDS011;40776;52.880;6.016;2023-04-03T16:38:41;5.45;;;1.10;;
54883;SDS011;40776;52.880;6.016;2023-04-03T16:41:07;1.73;;;0.80;;
54883;SDS011;40776;52.880;6.016;2023-04-03T16:43:34;2.15;;;0.70;;